createdAt,value
2023-03-11T00:00:25.427Z,11.77
2023-03-11T00:02:55.636Z,11.81
2023-03-11T00:05:27.527Z,11.47
2023-03-11T00:07:56.434Z,11.61
2023-03-11T00:10:29.873Z,11.61
2023-03-11T00:12:58.889Z,11.64
2023-03-11T00:15:27.125Z,11.82
2023-03-11T00:17:55.725Z,11.80
2023-03-11T00:20:28.503Z,11.64
2023-03-11T00:22:57.541Z,11.89
2023-03-11T00:25:28.886Z,12.00
2023-03-11T00:27:57.242Z,11.95
2023-03-11T00:30:26.045Z,11.34
2023-03-11T00:32:57.092Z,11.51
2023-03-11T00:35:29.160Z,11.77
2023-03-11T00:37:59.495Z,11.87
2023-03-11T00:40:30.731Z,11.47
2023-03-11T00:42:59.233Z,11.53
2023-03-11T00:45:28.334Z,11.75
2023-03-11T00:47:57.332Z,11.40
2023-03-11T00:50:29.673Z,11.20
2023-03-11T00:52:58.718Z,11.38
2023-03-11T00:55:29.254Z,11.24
2023-03-11T00:58:00.213Z,11.25
2023-03-11T01:00:33.482Z,11.18
2023-03-11T01:03:04.352Z,11.14
2023-03-11T01:05:35.546Z,10.86
2023-03-11T01:08:04.954Z,10.96
2023-03-11T01:10:34.579Z,11.15
2023-03-11T01:13:03.127Z,10.97
2023-03-11T01:15:33.384Z,10.93
2023-03-11T01:18:01.895Z,11.12
2023-03-11T01:20:30.593Z,11.20
2023-03-11T01:23:00.131Z,11.12
2023-03-11T01:25:29.719Z,10.84
2023-03-11T01:27:59.463Z,10.84
2023-03-11T01:30:29.527Z,11.23
2023-03-11T01:32:58.605Z,11.19
2023-03-11T01:35:29.362Z,11.14
2023-03-11T01:37:59.421Z,10.74
2023-03-11T01:40:32.210Z,10.27
2023-03-11T01:43:06.849Z,10.28
2023-03-11T01:45:43.279Z,9.54
2023-03-11T01:48:13.446Z,9.61
2023-03-11T01:50:45.277Z,9.66
2023-03-11T01:53:16.743Z,9.51
2023-03-11T01:55:46.671Z,9.57
2023-03-11T01:58:20.034Z,10.22
2023-03-11T02:00:48.649Z,9.59
2023-03-11T02:03:23.223Z,9.51
2023-03-11T02:05:53.998Z,9.62
2023-03-11T02:08:23.858Z,9.50
2023-03-11T02:10:54.377Z,9.40
2023-03-11T02:13:22.608Z,9.62
2023-03-11T02:15:51.111Z,9.42
2023-03-11T02:18:21.243Z,9.57
2023-03-11T02:20:58.381Z,9.27
2023-03-11T02:23:35.094Z,9.62
2023-03-11T02:26:09.493Z,9.89
2023-03-11T02:28:41.554Z,9.55
2023-03-11T02:31:09.925Z,9.32
2023-03-11T02:33:38.548Z,9.54
2023-03-11T02:36:07.670Z,9.52
2023-03-11T02:38:36.748Z,9.08
2023-03-11T02:41:07.171Z,9.45
2023-03-11T02:43:38.657Z,9.20
2023-03-11T02:46:11.956Z,8.60
2023-03-11T02:48:40.368Z,8.75
2023-03-11T02:51:08.852Z,8.77
2023-03-11T02:53:43.786Z,9.18
2023-03-11T02:56:12.101Z,8.43
2023-03-11T02:58:40.164Z,9.11
2023-03-11T03:01:11.965Z,8.84
2023-03-11T03:03:42.612Z,8.85
2023-03-11T03:06:11.529Z,8.75
2023-03-11T03:08:39.638Z,8.52
2023-03-11T03:11:08.116Z,8.33
2023-03-11T03:13:36.425Z,8.85
2023-03-11T03:16:05.004Z,9.27
2023-03-11T03:18:35.282Z,8.79
2023-03-11T03:21:03.413Z,8.18
2023-03-11T03:23:35.185Z,8.18
2023-03-11T03:26:03.486Z,8.33
2023-03-11T03:28:32.583Z,8.03
2023-03-11T03:31:05.694Z,8.07
2023-03-11T03:33:35.466Z,7.65
2023-03-11T03:36:08.353Z,7.38
2023-03-11T03:38:41.215Z,8.51
2023-03-11T03:41:10.201Z,7.60
2023-03-11T03:43:41.423Z,7.51
2023-03-11T03:46:10.228Z,8.21
2023-03-11T03:48:46.699Z,8.26
2023-03-11T03:51:15.655Z,7.91
2023-03-11T03:53:55.975Z,8.26
2023-03-11T03:56:26.127Z,8.20
2023-03-11T03:58:54.753Z,8.06
2023-03-11T04:01:25.248Z,8.62
2023-03-11T04:03:54.928Z,7.82
2023-03-11T04:06:25.106Z,7.77
2023-03-11T04:09:00.610Z,8.08
2023-03-11T04:11:33.315Z,7.09
2023-03-11T04:14:03.257Z,7.48
2023-03-11T04:16:33.625Z,7.86
2023-03-11T04:19:08.110Z,7.70
2023-03-11T04:21:37.140Z,7.54
2023-03-11T04:24:05.962Z,6.81
2023-03-11T04:26:37.056Z,7.15
2023-03-11T04:29:07.466Z,7.23
2023-03-11T04:31:41.096Z,6.90
2023-03-11T04:34:11.575Z,7.16
2023-03-11T04:36:40.970Z,7.14
2023-03-11T04:39:10.637Z,6.97
2023-03-11T04:41:43.041Z,6.91
2023-03-11T04:44:14.602Z,7.05
2023-03-11T04:46:43.001Z,7.54
2023-03-11T04:49:13.165Z,6.56
2023-03-11T04:51:41.582Z,6.64
2023-03-11T04:54:10.091Z,7.20
2023-03-11T04:56:38.246Z,6.92
2023-03-11T04:59:07.784Z,6.81
2023-03-11T05:01:38.294Z,6.62
2023-03-11T05:04:09.472Z,6.99
2023-03-11T05:06:39.041Z,6.40
2023-03-11T05:09:07.906Z,6.45
2023-03-11T05:11:38.966Z,6.47
2023-03-11T05:14:07.333Z,6.00
2023-03-11T05:16:35.812Z,6.40
2023-03-11T05:19:25.939Z,6.13
2023-03-11T05:21:55.729Z,5.52
2023-03-11T05:24:26.705Z,5.98
2023-03-11T05:26:55.681Z,6.10
2023-03-11T05:29:24.977Z,5.69
2023-03-11T05:31:54.844Z,5.16
2023-03-11T05:34:23.445Z,4.93
2023-03-11T05:36:51.840Z,4.66
2023-03-11T05:39:21.464Z,5.30
2023-03-11T05:41:49.669Z,5.01
2023-03-11T05:44:17.780Z,4.95
2023-03-11T05:46:45.899Z,4.25
2023-03-11T05:49:14.028Z,4.72
2023-03-11T05:51:42.512Z,4.56
2023-03-11T05:54:15.210Z,4.62
2023-03-11T05:56:49.018Z,4.41
2023-03-11T05:59:18.750Z,4.96
2023-03-11T06:01:53.489Z,4.84
2023-03-11T06:04:22.688Z,4.05
2023-03-11T06:06:50.992Z,4.24
2023-03-11T06:09:21.696Z,4.47
2023-03-11T06:11:51.482Z,4.07
2023-03-11T06:14:21.668Z,4.05
2023-03-11T06:16:51.869Z,3.93
2023-03-11T06:19:21.669Z,4.44
2023-03-11T06:21:52.186Z,3.81
2023-03-11T06:24:20.419Z,4.02
2023-03-11T06:26:53.817Z,4.00
2023-03-11T06:29:26.670Z,4.09
2023-03-11T06:31:55.918Z,4.56
2023-03-11T06:34:24.796Z,4.89
2023-03-11T06:36:54.898Z,4.96
2023-03-11T06:39:23.171Z,4.09
2023-03-11T06:41:54.217Z,3.71
2023-03-11T06:44:22.368Z,4.04
2023-03-11T06:46:50.455Z,3.78
2023-03-11T06:49:19.332Z,3.37
2023-03-11T06:51:47.400Z,3.24
2023-03-11T06:54:16.512Z,3.26
2023-03-11T06:56:44.841Z,2.77
2023-03-11T06:59:15.857Z,2.84
2023-03-11T07:01:43.937Z,2.95
2023-03-11T07:04:12.382Z,3.03
2023-03-11T07:06:43.571Z,3.01
2023-03-11T07:09:19.306Z,2.29
2023-03-11T07:11:47.734Z,2.84
2023-03-11T07:14:23.300Z,2.42
2023-03-11T07:16:55.201Z,2.71
2023-03-11T07:19:29.571Z,2.89
2023-03-11T07:21:57.695Z,2.58
2023-03-11T07:24:25.810Z,2.91
2023-03-11T07:26:53.912Z,2.67
2023-03-11T07:29:23.338Z,2.41
2023-03-11T07:31:51.498Z,2.27
2023-03-11T07:34:19.655Z,2.91
2023-03-11T07:36:47.817Z,2.19
2023-03-11T07:39:18.027Z,2.58
2023-03-11T07:41:46.836Z,3.06
2023-03-11T07:44:16.871Z,2.65
2023-03-11T07:46:47.078Z,2.84
2023-03-11T07:49:15.258Z,2.76
2023-03-11T07:51:44.088Z,2.58
2023-03-11T07:54:13.224Z,2.51
2023-03-11T07:56:41.361Z,2.43
2023-03-11T07:59:09.571Z,2.49
2023-03-11T08:01:40.681Z,2.28
2023-03-11T08:04:14.530Z,2.35
2023-03-11T08:06:43.870Z,2.67
2023-03-11T08:09:12.206Z,2.54
2023-03-11T08:11:40.797Z,2.34
2023-03-11T08:14:09.050Z,1.94
2023-03-11T08:16:37.282Z,2.21
2023-03-11T08:19:05.352Z,2.51
2023-03-11T08:21:34.876Z,2.85
2023-03-11T08:24:06.555Z,2.64
2023-03-11T08:26:35.028Z,2.97
2023-03-11T08:29:03.075Z,2.50
2023-03-11T08:31:33.726Z,2.29
2023-03-11T08:34:03.724Z,2.35
2023-03-11T08:36:32.744Z,2.59
2023-03-11T08:39:03.517Z,2.21
2023-03-11T08:41:31.858Z,3.04
2023-03-11T08:44:00.126Z,2.31
2023-03-11T08:46:30.760Z,2.48
2023-03-11T08:49:01.201Z,2.34
2023-03-11T08:51:30.530Z,2.26
2023-03-11T08:53:58.618Z,2.10
2023-03-11T08:56:29.053Z,2.15
2023-03-11T08:58:57.405Z,2.20
2023-03-11T09:01:25.736Z,2.31
2023-03-11T09:03:53.946Z,2.68
2023-03-11T09:06:22.649Z,2.51
2023-03-11T09:08:51.166Z,2.63
2023-03-11T09:11:22.079Z,2.39
2023-03-11T09:13:51.942Z,2.37
2023-03-11T09:16:25.577Z,3.14
2023-03-11T09:18:53.650Z,2.01
2023-03-11T09:21:21.809Z,2.47
2023-03-11T09:23:50.072Z,2.23
2023-03-11T09:28:49.301Z,2.59
2023-03-11T09:31:19.793Z,2.97
2023-03-11T09:33:48.523Z,2.62
2023-03-11T09:36:18.679Z,2.89
2023-03-11T09:38:47.903Z,2.74
2023-03-11T09:41:27.240Z,2.78
2023-03-11T09:44:06.409Z,3.00
2023-03-11T09:47:07.679Z,2.62
2023-03-11T09:49:48.639Z,2.18
2023-03-11T09:52:20.374Z,2.65
2023-03-11T09:54:52.292Z,2.78
2023-03-11T09:57:24.313Z,2.46
2023-03-11T09:59:52.946Z,2.08
2023-03-11T10:02:26.749Z,2.08
2023-03-11T10:04:59.962Z,2.23
2023-03-11T10:07:34.990Z,2.03
2023-03-11T10:10:03.863Z,1.83
2023-03-11T10:12:46.064Z,1.78
2023-03-11T10:15:20.930Z,2.42
2023-03-11T10:18:13.351Z,2.94
2023-03-11T10:20:52.207Z,2.64
2023-03-11T10:23:27.293Z,2.38
2023-03-11T10:26:04.151Z,1.56
2023-03-11T10:28:36.838Z,2.28
2023-03-11T10:31:19.089Z,1.66
2023-03-11T10:33:51.968Z,1.75
2023-03-11T10:36:24.616Z,1.68
2023-03-11T10:38:55.049Z,1.30
2023-03-11T10:41:31.240Z,1.20
2023-03-11T10:44:05.318Z,1.52
2023-03-11T10:46:33.438Z,1.22
2023-03-11T10:49:02.869Z,1.32
2023-03-11T10:51:35.755Z,1.55
2023-03-11T10:54:04.994Z,1.53
2023-03-11T10:56:36.030Z,1.59
2023-03-11T10:59:06.329Z,1.25
2023-03-11T11:01:34.700Z,1.56
2023-03-11T11:04:04.698Z,1.03
2023-03-11T11:06:34.512Z,1.03
2023-03-11T11:09:11.867Z,0.83
2023-03-11T11:11:40.293Z,1.38
2023-03-11T11:14:09.528Z,1.22
2023-03-11T11:16:38.114Z,1.16
2023-03-11T11:19:11.911Z,1.23
2023-03-11T11:21:43.386Z,1.17
2023-03-11T11:24:25.763Z,1.53
2023-03-11T11:27:08.401Z,1.07
2023-03-11T11:29:36.750Z,0.86
2023-03-11T11:32:21.632Z,0.90
2023-03-11T11:35:00.676Z,0.85
2023-03-11T11:37:32.444Z,0.75
2023-03-11T11:40:11.203Z,0.53
2023-03-11T11:42:41.618Z,1.10
2023-03-11T11:45:17.436Z,0.66
2023-03-11T11:47:49.899Z,0.57
2023-03-11T11:50:27.406Z,0.53
2023-03-11T11:53:04.191Z,0.40
2023-03-11T11:55:34.250Z,0.62
2023-03-11T11:58:02.385Z,0.46
2023-03-11T12:00:39.767Z,0.79
2023-03-11T12:03:25.596Z,0.69
2023-03-11T12:05:59.073Z,0.42
2023-03-11T12:08:35.179Z,0.58
2023-03-11T12:11:05.769Z,0.20
2023-03-11T12:14:00.290Z,0.08
2023-03-11T12:16:39.637Z,0.44
2023-03-11T12:19:19.151Z,0.57
2023-03-11T12:22:17.553Z,0.87
2023-03-11T12:25:09.713Z,0.62
2023-03-11T12:27:45.595Z,0.85
2023-03-11T12:30:18.344Z,0.49
2023-03-11T12:32:50.354Z,0.49
2023-03-11T12:35:26.430Z,0.57
2023-03-11T12:38:06.940Z,0.85
2023-03-11T12:41:00.030Z,0.49
2023-03-11T12:43:44.347Z,0.24
2023-03-11T12:46:14.378Z,0.42
2023-03-11T12:48:46.738Z,0.58
2023-03-11T12:51:41.775Z,0.80
2023-03-11T12:54:31.031Z,0.54
2023-03-11T12:57:00.640Z,0.53
2023-03-11T13:00:07.829Z,0.24
2023-03-11T13:02:58.014Z,0.24
2023-03-11T13:05:32.443Z,0.49
2023-03-11T13:08:05.190Z,0.27
2023-03-11T13:10:40.706Z,0.25
2023-03-11T13:13:38.053Z,0.60
2023-03-11T13:16:38.654Z,0.22
2023-03-11T13:19:43.403Z,0.54
2023-03-11T13:22:44.269Z,0.79
2023-03-11T13:25:32.946Z,1.06
2023-03-11T13:28:29.213Z,0.98
2023-03-11T13:31:06.450Z,0.62
2023-03-11T13:33:46.525Z,0.58
2023-03-11T13:36:31.171Z,0.63
2023-03-11T13:39:26.928Z,0.69
2023-03-11T13:41:56.299Z,0.97
2023-03-11T13:44:30.705Z,0.54
2023-03-11T13:47:04.994Z,0.86
2023-03-11T13:49:39.492Z,0.75
2023-03-11T13:52:11.461Z,0.80
2023-03-11T13:54:44.869Z,0.78
2023-03-11T13:57:26.706Z,0.91
2023-03-11T13:59:57.593Z,0.89
2023-03-11T14:02:27.947Z,0.99
2023-03-11T14:04:59.698Z,0.51
2023-03-11T14:07:30.926Z,0.52
2023-03-11T14:10:21.261Z,0.50
2023-03-11T14:12:50.031Z,0.41
2023-03-11T14:15:24.429Z,0.64
2023-03-11T14:17:54.264Z,0.41
2023-03-11T14:20:25.561Z,0.54
2023-03-11T14:22:56.104Z,1.09
2023-03-11T14:25:27.324Z,0.69
2023-03-11T14:27:58.144Z,0.58
2023-03-11T14:30:29.724Z,0.24
2023-03-11T14:33:00.943Z,0.96
2023-03-11T14:35:29.553Z,0.79
2023-03-11T14:37:59.118Z,0.61
2023-03-11T14:40:30.807Z,0.65
2023-03-11T14:43:02.408Z,0.82
2023-03-11T14:45:34.636Z,1.08
2023-03-11T14:48:08.291Z,0.60
2023-03-11T14:50:36.987Z,0.37
2023-03-11T14:53:10.072Z,0.79
2023-03-11T14:55:43.219Z,0.35
2023-03-11T14:58:16.453Z,0.92
2023-03-11T15:00:50.532Z,0.94
2023-03-11T15:03:24.554Z,1.05
2023-03-11T15:05:56.362Z,1.03
2023-03-11T15:08:28.243Z,1.33
2023-03-11T15:11:09.097Z,0.75
2023-03-11T15:13:38.594Z,0.93
2023-03-11T15:16:22.761Z,1.11
2023-03-11T15:18:51.003Z,0.72
2023-03-11T15:21:20.975Z,0.80
2023-03-11T15:23:50.957Z,1.14
2023-03-11T15:26:22.624Z,0.80
2023-03-11T15:28:59.393Z,0.56
2023-03-11T15:31:35.552Z,0.59
2023-03-11T15:34:27.267Z,0.28
2023-03-11T15:37:21.368Z,0.84
2023-03-11T15:39:53.215Z,0.58
2023-03-11T15:42:25.740Z,0.59
2023-03-11T15:45:05.824Z,0.45
2023-03-11T15:47:36.238Z,0.73
2023-03-11T15:50:24.163Z,0.29
2023-03-11T15:52:54.427Z,0.71
2023-03-11T15:55:22.908Z,0.39
2023-03-11T15:57:55.141Z,0.07
2023-03-11T16:00:24.907Z,0.27
2023-03-11T16:02:54.857Z,0.32
2023-03-11T16:05:25.112Z,0.77
2023-03-11T16:07:53.257Z,-0.02
2023-03-11T16:10:22.844Z,0.64
2023-03-11T16:12:51.051Z,0.74
2023-03-11T16:15:28.515Z,0.43
2023-03-11T16:17:59.505Z,0.28
2023-03-11T16:20:30.104Z,0.73
2023-03-11T16:22:59.766Z,0.07
2023-03-11T16:25:30.375Z,0.46
2023-03-11T16:27:59.005Z,-0.03
2023-03-11T16:30:28.591Z,-0.20
2023-03-11T16:32:58.440Z,0.74
2023-03-11T16:35:27.526Z,0.89
2023-03-11T16:37:55.730Z,0.17
2023-03-11T16:40:27.318Z,0.79
2023-03-11T16:42:58.075Z,0.55
2023-03-11T16:45:26.353Z,0.57
2023-03-11T16:47:54.468Z,0.90
2023-03-11T16:50:24.998Z,0.19
2023-03-11T16:52:53.569Z,0.46
2023-03-11T16:55:22.207Z,0.34
2023-03-11T16:57:50.325Z,0.63
2023-03-11T17:00:19.302Z,0.52
2023-03-11T17:02:47.741Z,0.63
2023-03-11T17:05:15.858Z,0.26
2023-03-11T17:07:45.402Z,0.49
2023-03-11T17:10:13.915Z,0.04
2023-03-11T17:12:42.032Z,0.48
2023-03-11T17:15:10.619Z,0.74
2023-03-11T17:17:38.679Z,0.33
2023-03-11T17:20:08.757Z,0.30
2023-03-11T17:22:37.166Z,0.27
2023-03-11T17:25:07.867Z,0.13
2023-03-11T17:27:36.391Z,0.33
2023-03-11T17:30:07.177Z,0.50
2023-03-11T17:32:35.515Z,0.28
2023-03-11T17:35:03.616Z,0.10
2023-03-11T17:37:33.308Z,0.58
2023-03-11T17:40:01.430Z,0.28
2023-03-11T17:42:30.992Z,0.53
2023-03-11T17:44:59.492Z,0.50
2023-03-11T17:47:27.644Z,-0.23
2023-03-11T17:49:55.720Z,0.48
2023-03-11T17:52:23.838Z,0.35
2023-03-11T17:54:53.557Z,0.43
2023-03-11T17:57:21.725Z,0.41
2023-03-11T17:59:53.688Z,0.27
2023-03-11T18:02:22.281Z,0.46
2023-03-11T18:04:53.988Z,-0.11
2023-03-11T18:07:23.803Z,0.58
2023-03-11T18:09:53.116Z,0.50
2023-03-11T18:12:21.959Z,-0.11
2023-03-11T18:14:50.158Z,0.30
2023-03-11T18:17:21.165Z,0.36
2023-03-11T18:19:49.258Z,0.59
2023-03-11T18:22:17.308Z,0.46
2023-03-11T18:24:45.701Z,0.22
2023-03-11T18:27:13.745Z,0.27
2023-03-11T18:29:42.221Z,0.29
2023-03-11T18:32:10.508Z,0.53
2023-03-11T18:34:40.529Z,0.45
2023-03-11T18:37:08.750Z,0.46
2023-03-11T18:39:36.811Z,0.62
2023-03-11T18:42:05.853Z,0.36
2023-03-11T18:44:36.495Z,0.45
2023-03-11T18:47:05.092Z,0.43
2023-03-11T18:49:33.237Z,0.60
2023-03-11T18:52:02.826Z,0.46
2023-03-11T18:54:30.840Z,0.58
2023-03-11T18:56:58.954Z,0.54
2023-03-11T18:59:28.352Z,0.49
2023-03-11T19:01:56.477Z,0.52
2023-03-11T19:04:24.539Z,0.11
2023-03-11T19:06:52.661Z,0.62
2023-03-11T19:09:22.145Z,0.63
2023-03-11T19:11:50.243Z,0.64
2023-03-11T19:14:18.328Z,0.09
2023-03-11T19:16:46.479Z,0.21
2023-03-11T19:19:14.615Z,0.75
2023-03-11T19:21:42.765Z,0.16
2023-03-11T19:24:10.967Z,0.52
2023-03-11T19:26:45.269Z,-0.42
2023-03-11T19:29:14.150Z,-0.76
2023-03-11T19:31:43.639Z,-0.94
2023-03-11T19:34:11.988Z,-0.21
2023-03-11T19:36:40.411Z,-0.23
2023-03-11T19:39:08.906Z,0.47
2023-03-11T19:41:37.231Z,0.24
2023-03-11T19:44:06.789Z,0.32
2023-03-11T19:46:36.600Z,0.15
2023-03-11T19:49:05.441Z,0.63
2023-03-11T19:51:48.609Z,0.66
2023-03-11T19:54:18.296Z,-0.07
2023-03-11T19:56:46.511Z,0.07
2023-03-11T19:59:16.083Z,0.04
2023-03-11T20:01:44.234Z,0.46
2023-03-11T20:04:12.686Z,0.27
2023-03-11T20:06:41.045Z,0.36
2023-03-11T20:09:09.148Z,0.46
2023-03-11T20:11:39.951Z,0.16
2023-03-11T20:14:08.861Z,0.18
2023-03-11T20:16:38.467Z,0.13
2023-03-11T20:19:06.688Z,0.20
2023-03-11T20:21:39.060Z,0.55
2023-03-11T20:24:08.246Z,0.27
2023-03-11T20:26:36.639Z,0.56
2023-03-11T20:29:05.505Z,-0.08
2023-03-11T20:31:33.815Z,0.08
2023-03-11T20:34:03.451Z,0.32
2023-03-11T20:36:34.011Z,-0.02
2023-03-11T20:39:02.852Z,-0.02
2023-03-11T20:41:37.463Z,-0.19
2023-03-11T20:44:07.065Z,-0.45
2023-03-11T20:46:35.774Z,-0.03
2023-03-11T20:49:05.437Z,-0.30
2023-03-11T20:51:33.688Z,-0.60
2023-03-11T20:54:01.852Z,-0.37
2023-03-11T20:56:30.186Z,-0.38
2023-03-11T20:59:01.035Z,-0.20
2023-03-11T21:01:31.070Z,-0.33
2023-03-11T21:04:01.690Z,-0.05
2023-03-11T21:06:34.292Z,-0.57
2023-03-11T21:09:05.825Z,-0.27
2023-03-11T21:11:34.713Z,-0.33
2023-03-11T21:14:02.919Z,-0.68
2023-03-11T21:16:31.165Z,-0.51
2023-03-11T21:19:01.518Z,-0.68
2023-03-11T21:21:31.243Z,-0.30
2023-03-11T21:23:59.392Z,-0.80
2023-03-11T21:26:27.794Z,-0.53
2023-03-11T21:28:56.024Z,-0.59
2023-03-11T21:31:29.072Z,-0.94
2023-03-11T21:33:59.299Z,-0.85
2023-03-11T21:36:27.907Z,-0.30
2023-03-11T21:38:57.487Z,-0.29
2023-03-11T21:41:27.398Z,-0.93
2023-03-11T21:43:57.603Z,-0.72
2023-03-11T21:46:28.401Z,-0.73
2023-03-11T21:48:57.095Z,-1.07
2023-03-11T21:51:26.195Z,-0.81
2023-03-11T21:53:54.458Z,-0.68
2023-03-11T21:56:24.184Z,-0.15
2023-03-11T21:58:53.895Z,-0.83
2023-03-11T22:01:22.340Z,-1.02
2023-03-11T22:03:50.953Z,-1.04
2023-03-11T22:06:19.196Z,-0.82
2023-03-11T22:08:47.267Z,-0.92
2023-03-11T22:11:19.463Z,-0.34
2023-03-11T22:13:51.324Z,-0.33
2023-03-11T22:16:20.404Z,-0.04
2023-03-11T22:18:49.037Z,-0.22
2023-03-11T22:21:20.674Z,-0.03
2023-03-11T22:23:49.497Z,-0.27
2023-03-11T22:26:17.731Z,-0.34
2023-03-11T22:28:45.802Z,-0.05
2023-03-11T22:31:18.639Z,-0.18
2023-03-11T22:33:47.341Z,0.05
2023-03-11T22:36:15.599Z,-0.34
2023-03-11T22:38:45.134Z,0.09
2023-03-11T22:41:16.853Z,-0.14
2023-03-11T22:43:45.003Z,0.11
2023-03-11T22:46:13.053Z,-0.22
2023-03-11T22:48:42.761Z,-0.10
2023-03-11T22:51:11.210Z,-0.23
2023-03-11T22:53:39.510Z,-0.27
2023-03-11T22:56:09.608Z,-0.41
2023-03-11T22:58:37.822Z,0.14
2023-03-11T23:01:06.079Z,0.29
2023-03-11T23:03:35.161Z,-0.30
2023-03-11T23:06:07.694Z,-0.18
2023-03-11T23:08:36.869Z,-0.02
2023-03-11T23:11:06.718Z,-0.05
2023-03-11T23:13:36.209Z,0.13
2023-03-11T23:16:07.364Z,-0.04
2023-03-11T23:18:36.000Z,0.46
2023-03-11T23:21:05.892Z,0.13
2023-03-11T23:23:33.980Z,0.09
2023-03-11T23:26:02.016Z,-0.07
2023-03-11T23:28:30.204Z,-0.08
2023-03-11T23:30:58.271Z,-0.38
2023-03-11T23:33:26.480Z,-0.41
2023-03-11T23:35:54.632Z,-0.60
2023-03-11T23:38:24.187Z,-0.28
2023-03-11T23:40:52.374Z,-0.18
2023-03-11T23:43:23.618Z,-0.23
2023-03-11T23:45:52.286Z,-0.09
2023-03-11T23:48:20.356Z,-0.27
2023-03-11T23:50:49.240Z,0.15
2023-03-11T23:53:21.397Z,0.20
2023-03-11T23:55:51.671Z,-0.07
2023-03-11T23:58:20.365Z,0.29
